sensor_id;sensor_type;location;lat;lon;timestamp;temperature;humidity
51175;DHT22;37240;50.104;20.010;2024-02-23T00:01:15;13.50;80.30
51175;DHT22;37240;50.104;20.010;2024-02-23T00:06:15;13.50;81.10
51175;DHT22;37240;50.104;20.010;2024-02-23T00:11:16;13.50;81.90
51175;DHT22;37240;50.104;20.010;2024-02-23T00:16:16;13.40;82.10
51175;DHT22;37240;50.104;20.010;2024-02-23T00:21:17;13.50;81.90
51175;DHT22;37240;50.104;20.010;2024-02-23T00:26:17;13.50;81.30
51175;DHT22;37240;50.104;20.010;2024-02-23T00:31:18;13.50;81.70
51175;DHT22;37240;50.104;20.010;2024-02-23T00:36:18;13.40;82.50
51175;DHT22;37240;50.104;20.010;2024-02-23T00:41:19;13.40;82.70
51175;DHT22;37240;50.104;20.010;2024-02-23T00:46:19;13.50;82.00
51175;DHT22;37240;50.104;20.010;2024-02-23T00:51:20;13.50;82.10
51175;DHT22;37240;50.104;20.010;2024-02-23T00:56:21;13.50;82.30
51175;DHT22;37240;50.104;20.010;2024-02-23T01:01:21;13.50;82.40
51175;DHT22;37240;50.104;20.010;2024-02-23T01:06:22;13.60;82.10
51175;DHT22;37240;50.104;20.010;2024-02-23T01:11:22;13.60;82.30
51175;DHT22;37240;50.104;20.010;2024-02-23T01:16:23;13.50;82.30
51175;DHT22;37240;50.104;20.010;2024-02-23T01:21:23;13.60;82.70
51175;DHT22;37240;50.104;20.010;2024-02-23T01:26:24;13.50;83.60
51175;DHT22;37240;50.104;20.010;2024-02-23T01:31:24;13.40;84.90
51175;DHT22;37240;50.104;20.010;2024-02-23T01:36:25;13.40;85.20
51175;DHT22;37240;50.104;20.010;2024-02-23T01:41:25;13.50;85.40
51175;DHT22;37240;50.104;20.010;2024-02-23T01:46:26;13.40;86.30
51175;DHT22;37240;50.104;20.010;2024-02-23T01:51:27;13.40;87.30
51175;DHT22;37240;50.104;20.010;2024-02-23T01:56:27;13.40;87.90
51175;DHT22;37240;50.104;20.010;2024-02-23T02:01:29;13.40;88.60
51175;DHT22;37240;50.104;20.010;2024-02-23T02:06:30;13.40;89.90
51175;DHT22;37240;50.104;20.010;2024-02-23T02:11:30;13.40;90.00
51175;DHT22;37240;50.104;20.010;2024-02-23T02:16:31;13.40;90.20
51175;DHT22;37240;50.104;20.010;2024-02-23T02:21:32;13.30;90.30
51175;DHT22;37240;50.104;20.010;2024-02-23T02:26:34;13.40;90.30
51175;DHT22;37240;50.104;20.010;2024-02-23T02:31:35;13.30;90.30
51175;DHT22;37240;50.104;20.010;2024-02-23T02:36:35;13.30;90.40
51175;DHT22;37240;50.104;20.010;2024-02-23T02:41:36;13.30;90.20
51175;DHT22;37240;50.104;20.010;2024-02-23T02:46:36;13.40;90.20
51175;DHT22;37240;50.104;20.010;2024-02-23T02:51:37;13.40;90.20
51175;DHT22;37240;50.104;20.010;2024-02-23T02:56:45;13.40;90.20
51175;DHT22;37240;50.104;20.010;2024-02-23T03:01:45;13.40;90.00
51175;DHT22;37240;50.104;20.010;2024-02-23T03:06:46;13.40;90.00
51175;DHT22;37240;50.104;20.010;2024-02-23T03:11:46;13.40;89.90
51175;DHT22;37240;50.104;20.010;2024-02-23T03:16:48;13.40;90.00
51175;DHT22;37240;50.104;20.010;2024-02-23T03:21:49;13.40;89.90
51175;DHT22;37240;50.104;20.010;2024-02-23T03:26:50;13.40;89.80
51175;DHT22;37240;50.104;20.010;2024-02-23T03:31:51;13.40;89.70
51175;DHT22;37240;50.104;20.010;2024-02-23T03:36:51;13.40;89.20
51175;DHT22;37240;50.104;20.010;2024-02-23T03:41:52;13.40;88.90
51175;DHT22;37240;50.104;20.010;2024-02-23T03:46:52;13.40;88.40
51175;DHT22;37240;50.104;20.010;2024-02-23T03:51:53;13.40;87.80
51175;DHT22;37240;50.104;20.010;2024-02-23T03:56:53;13.40;87.50
51175;DHT22;37240;50.104;20.010;2024-02-23T04:01:54;13.40;87.30
51175;DHT22;37240;50.104;20.010;2024-02-23T04:06:54;13.50;87.40
51175;DHT22;37240;50.104;20.010;2024-02-23T04:11:55;13.50;87.30
51175;DHT22;37240;50.104;20.010;2024-02-23T04:16:55;13.50;87.00
51175;DHT22;37240;50.104;20.010;2024-02-23T04:21:56;13.50;87.30
51175;DHT22;37240;50.104;20.010;2024-02-23T04:26:57;13.50;87.60
51175;DHT22;37240;50.104;20.010;2024-02-23T04:31:58;13.50;87.80
51175;DHT22;37240;50.104;20.010;2024-02-23T04:36:58;13.50;88.50
51175;DHT22;37240;50.104;20.010;2024-02-23T04:41:59;13.40;89.00
51175;DHT22;37240;50.104;20.010;2024-02-23T04:46:59;13.50;89.50
51175;DHT22;37240;50.104;20.010;2024-02-23T04:52:00;13.40;90.00
51175;DHT22;37240;50.104;20.010;2024-02-23T04:57:00;13.40;90.20
51175;DHT22;37240;50.104;20.010;2024-02-23T05:02:01;13.40;90.30
51175;DHT22;37240;50.104;20.010;2024-02-23T05:07:01;13.40;90.40
51175;DHT22;37240;50.104;20.010;2024-02-23T05:12:02;13.40;90.40
51175;DHT22;37240;50.104;20.010;2024-02-23T05:17:03;13.40;90.60
51175;DHT22;37240;50.104;20.010;2024-02-23T05:22:04;13.40;90.70
51175;DHT22;37240;50.104;20.010;2024-02-23T05:27:04;13.30;90.80
51175;DHT22;37240;50.104;20.010;2024-02-23T05:32:05;13.30;90.90
51175;DHT22;37240;50.104;20.010;2024-02-23T05:37:05;13.30;91.10
51175;DHT22;37240;50.104;20.010;2024-02-23T05:42:06;13.30;91.30
51175;DHT22;37240;50.104;20.010;2024-02-23T05:47:07;13.30;91.90
51175;DHT22;37240;50.104;20.010;2024-02-23T05:52:07;13.20;92.80
51175;DHT22;37240;50.104;20.010;2024-02-23T05:57:08;13.10;93.70
51175;DHT22;37240;50.104;20.010;2024-02-23T06:02:08;13.10;94.00
51175;DHT22;37240;50.104;20.010;2024-02-23T06:07:09;13.10;93.50
51175;DHT22;37240;50.104;20.010;2024-02-23T06:12:09;13.10;93.50
51175;DHT22;37240;50.104;20.010;2024-02-23T06:17:16;13.10;93.60
51175;DHT22;37240;50.104;20.010;2024-02-23T06:22:17;13.20;94.20
51175;DHT22;37240;50.104;20.010;2024-02-23T06:27:17;13.10;94.90
51175;DHT22;37240;50.104;20.010;2024-02-23T06:32:18;13.10;95.80
51175;DHT22;37240;50.104;20.010;2024-02-23T06:37:18;13.00;95.50
51175;DHT22;37240;50.104;20.010;2024-02-23T06:42:19;13.10;95.90
51175;DHT22;37240;50.104;20.010;2024-02-23T06:47:19;13.00;96.50
51175;DHT22;37240;50.104;20.010;2024-02-23T06:52:20;13.00;97.20
51175;DHT22;37240;50.104;20.010;2024-02-23T06:57:20;13.00;97.60
51175;DHT22;37240;50.104;20.010;2024-02-23T07:02:21;13.10;96.90
51175;DHT22;37240;50.104;20.010;2024-02-23T07:07:21;13.30;96.70
51175;DHT22;37240;50.104;20.010;2024-02-23T07:12:22;13.30;96.70
51175;DHT22;37240;50.104;20.010;2024-02-23T07:17:22;13.30;96.70
51175;DHT22;37240;50.104;20.010;2024-02-23T07:22:23;13.40;96.80
51175;DHT22;37240;50.104;20.010;2024-02-23T07:27:24;13.40;97.10
51175;DHT22;37240;50.104;20.010;2024-02-23T07:32:24;13.40;97.20
51175;DHT22;37240;50.104;20.010;2024-02-23T07:37:26;13.40;97.20
51175;DHT22;37240;50.104;20.010;2024-02-23T07:42:27;13.40;97.30
51175;DHT22;37240;50.104;20.010;2024-02-23T07:47:27;13.40;97.20
51175;DHT22;37240;50.104;20.010;2024-02-23T07:52:28;13.40;97.40
51175;DHT22;37240;50.104;20.010;2024-02-23T07:57:28;13.30;97.60
51175;DHT22;37240;50.104;20.010;2024-02-23T08:02:29;13.30;98.10
51175;DHT22;37240;50.104;20.010;2024-02-23T08:07:29;13.30;98.70
51175;DHT22;37240;50.104;20.010;2024-02-23T08:12:30;13.30;99.10
51175;DHT22;37240;50.104;20.010;2024-02-23T08:17:31;13.30;99.50
51175;DHT22;37240;50.104;20.010;2024-02-23T08:22:31;13.30;99.40
51175;DHT22;37240;50.104;20.010;2024-02-23T08:27:32;13.20;99.20
51175;DHT22;37240;50.104;20.010;2024-02-23T08:32:32;13.20;99.60
51175;DHT22;37240;50.104;20.010;2024-02-23T08:37:33;13.20;99.70
51175;DHT22;37240;50.104;20.010;2024-02-23T08:42:33;13.20;99.80
51175;DHT22;37240;50.104;20.010;2024-02-23T08:47:34;13.20;99.90
51175;DHT22;37240;50.104;20.010;2024-02-23T08:52:34;13.10;99.90
51175;DHT22;37240;50.104;20.010;2024-02-23T08:57:35;13.20;99.90
51175;DHT22;37240;50.104;20.010;2024-02-23T09:02:35;13.20;99.90
51175;DHT22;37240;50.104;20.010;2024-02-23T09:07:36;13.30;99.90
51175;DHT22;37240;50.104;20.010;2024-02-23T09:12:36;13.30;99.90
51175;DHT22;37240;50.104;20.010;2024-02-23T09:17:37;13.30;99.90
51175;DHT22;37240;50.104;20.010;2024-02-23T09:22:39;13.20;99.90
51175;DHT22;37240;50.104;20.010;2024-02-23T09:27:43;13.30;99.90
51175;DHT22;37240;50.104;20.010;2024-02-23T09:32:43;13.30;99.90
51175;DHT22;37240;50.104;20.010;2024-02-23T09:37:44;13.30;99.90
51175;DHT22;37240;50.104;20.010;2024-02-23T09:42:55;13.30;99.90
51175;DHT22;37240;50.104;20.010;2024-02-23T09:47:57;13.30;99.90
51175;DHT22;37240;50.104;20.010;2024-02-23T09:52:58;13.30;99.90
51175;DHT22;37240;50.104;20.010;2024-02-23T09:57:59;13.40;99.90
51175;DHT22;37240;50.104;20.010;2024-02-23T10:03:00;13.50;99.90
51175;DHT22;37240;50.104;20.010;2024-02-23T10:08:00;13.40;99.90
51175;DHT22;37240;50.104;20.010;2024-02-23T10:13:01;13.30;99.90
51175;DHT22;37240;50.104;20.010;2024-02-23T10:18:02;13.20;99.90
51175;DHT22;37240;50.104;20.010;2024-02-23T10:23:07;13.20;99.90
51175;DHT22;37240;50.104;20.010;2024-02-23T10:28:07;13.40;99.90
51175;DHT22;37240;50.104;20.010;2024-02-23T10:33:09;13.40;99.90
51175;DHT22;37240;50.104;20.010;2024-02-23T10:38:10;13.60;99.90
51175;DHT22;37240;50.104;20.010;2024-02-23T10:43:14;13.60;99.90
51175;DHT22;37240;50.104;20.010;2024-02-23T10:48:19;13.80;99.90
51175;DHT22;37240;50.104;20.010;2024-02-23T10:53:21;14.00;99.90
51175;DHT22;37240;50.104;20.010;2024-02-23T10:58:21;14.00;99.90
51175;DHT22;37240;50.104;20.010;2024-02-23T11:03:22;14.10;99.90
51175;DHT22;37240;50.104;20.010;2024-02-23T11:08:23;14.20;99.70
51175;DHT22;37240;50.104;20.010;2024-02-23T11:13:30;14.20;99.60
51175;DHT22;37240;50.104;20.010;2024-02-23T11:18:31;14.30;99.50
51175;DHT22;37240;50.104;20.010;2024-02-23T11:23:47;14.30;99.20
51175;DHT22;37240;50.104;20.010;2024-02-23T11:28:51;14.40;99.00
51175;DHT22;37240;50.104;20.010;2024-02-23T11:33:53;14.40;98.70
51175;DHT22;37240;50.104;20.010;2024-02-23T11:38:56;14.50;98.50
51175;DHT22;37240;50.104;20.010;2024-02-23T11:43:56;14.50;98.50
51175;DHT22;37240;50.104;20.010;2024-02-23T11:48:57;14.50;98.50
51175;DHT22;37240;50.104;20.010;2024-02-23T11:53:57;14.60;98.30
51175;DHT22;37240;50.104;20.010;2024-02-23T11:58:58;14.70;98.30
51175;DHT22;37240;50.104;20.010;2024-02-23T12:03:59;14.70;98.00
51175;DHT22;37240;50.104;20.010;2024-02-23T12:09:01;14.70;97.90
51175;DHT22;37240;50.104;20.010;2024-02-23T12:14:02;14.70;98.20
51175;DHT22;37240;50.104;20.010;2024-02-23T12:19:02;14.70;99.00
51175;DHT22;37240;50.104;20.010;2024-02-23T12:24:06;14.80;98.90
51175;DHT22;37240;50.104;20.010;2024-02-23T12:29:07;14.90;98.40
51175;DHT22;37240;50.104;20.010;2024-02-23T12:34:11;15.00;98.70
51175;DHT22;37240;50.104;20.010;2024-02-23T12:39:12;14.90;98.40
51175;DHT22;37240;50.104;20.010;2024-02-23T12:44:13;15.00;98.60
51175;DHT22;37240;50.104;20.010;2024-02-23T12:49:13;15.00;97.80
51175;DHT22;37240;50.104;20.010;2024-02-23T12:54:15;15.00;97.70
51175;DHT22;37240;50.104;20.010;2024-02-23T12:59:16;15.00;97.70
51175;DHT22;37240;50.104;20.010;2024-02-23T13:04:16;14.80;97.80
51175;DHT22;37240;50.104;20.010;2024-02-23T13:09:17;14.80;97.90
51175;DHT22;37240;50.104;20.010;2024-02-23T13:14:17;14.90;97.80
51175;DHT22;37240;50.104;20.010;2024-02-23T13:19:18;14.80;97.70
51175;DHT22;37240;50.104;20.010;2024-02-23T13:24:18;14.80;97.80
51175;DHT22;37240;50.104;20.010;2024-02-23T13:29:19;14.80;98.00
51175;DHT22;37240;50.104;20.010;2024-02-23T13:34:20;14.70;98.20
51175;DHT22;37240;50.104;20.010;2024-02-23T13:39:20;14.60;98.50
51175;DHT22;37240;50.104;20.010;2024-02-23T13:44:21;14.50;98.70
51175;DHT22;37240;50.104;20.010;2024-02-23T13:49:21;14.50;98.60
51175;DHT22;37240;50.104;20.010;2024-02-23T13:54:22;14.40;98.50
51175;DHT22;37240;50.104;20.010;2024-02-23T13:59:22;14.40;98.70
51175;DHT22;37240;50.104;20.010;2024-02-23T14:04:23;14.40;98.40
51175;DHT22;37240;50.104;20.010;2024-02-23T14:09:23;14.40;98.00
51175;DHT22;37240;50.104;20.010;2024-02-23T14:14:24;14.30;97.90
51175;DHT22;37240;50.104;20.010;2024-02-23T14:19:25;14.40;98.10
51175;DHT22;37240;50.104;20.010;2024-02-23T14:24:25;14.30;97.80
51175;DHT22;37240;50.104;20.010;2024-02-23T14:29:26;14.30;98.00
51175;DHT22;37240;50.104;20.010;2024-02-23T14:34:27;14.30;98.50
51175;DHT22;37240;50.104;20.010;2024-02-23T14:39:27;14.20;98.80
51175;DHT22;37240;50.104;20.010;2024-02-23T14:44:28;14.20;99.20
51175;DHT22;37240;50.104;20.010;2024-02-23T14:49:28;14.20;99.40
51175;DHT22;37240;50.104;20.010;2024-02-23T14:54:29;14.10;99.70
51175;DHT22;37240;50.104;20.010;2024-02-23T14:59:29;14.00;99.90
51175;DHT22;37240;50.104;20.010;2024-02-23T15:04:30;14.00;99.90
51175;DHT22;37240;50.104;20.010;2024-02-23T15:09:30;13.90;99.90
51175;DHT22;37240;50.104;20.010;2024-02-23T15:14:31;13.80;99.90
51175;DHT22;37240;50.104;20.010;2024-02-23T15:19:31;13.80;99.90
51175;DHT22;37240;50.104;20.010;2024-02-23T15:24:32;13.80;99.90
51175;DHT22;37240;50.104;20.010;2024-02-23T15:29:32;13.80;99.90
51175;DHT22;37240;50.104;20.010;2024-02-23T15:34:33;13.70;99.90
51175;DHT22;37240;50.104;20.010;2024-02-23T15:39:33;13.60;99.90
51175;DHT22;37240;50.104;20.010;2024-02-23T15:44:34;13.60;99.90
51175;DHT22;37240;50.104;20.010;2024-02-23T15:49:35;13.50;99.90
51175;DHT22;37240;50.104;20.010;2024-02-23T15:54:35;13.50;99.90
51175;DHT22;37240;50.104;20.010;2024-02-23T15:59:36;13.40;99.90
51175;DHT22;37240;50.104;20.010;2024-02-23T16:04:36;13.30;99.90
51175;DHT22;37240;50.104;20.010;2024-02-23T16:09:37;13.20;99.90
51175;DHT22;37240;50.104;20.010;2024-02-23T16:14:37;13.10;99.90
51175;DHT22;37240;50.104;20.010;2024-02-23T16:19:38;13.10;99.90
51175;DHT22;37240;50.104;20.010;2024-02-23T16:24:40;13.10;99.90
51175;DHT22;37240;50.104;20.010;2024-02-23T16:29:40;13.10;99.90
51175;DHT22;37240;50.104;20.010;2024-02-23T16:34:41;13.10;99.90
51175;DHT22;37240;50.104;20.010;2024-02-23T16:39:41;13.10;99.90
51175;DHT22;37240;50.104;20.010;2024-02-23T16:44:42;13.10;99.90
51175;DHT22;37240;50.104;20.010;2024-02-23T16:49:42;13.10;99.90
51175;DHT22;37240;50.104;20.010;2024-02-23T16:54:43;13.10;99.90
51175;DHT22;37240;50.104;20.010;2024-02-23T16:59:43;13.00;99.90
51175;DHT22;37240;50.104;20.010;2024-02-23T17:04:44;13.00;99.90
51175;DHT22;37240;50.104;20.010;2024-02-23T17:09:44;12.90;99.90
51175;DHT22;37240;50.104;20.010;2024-02-23T17:14:45;12.80;99.90
51175;DHT22;37240;50.104;20.010;2024-02-23T17:19:46;12.60;99.90
51175;DHT22;37240;50.104;20.010;2024-02-23T17:24:46;12.60;99.90
51175;DHT22;37240;50.104;20.010;2024-02-23T17:29:47;12.50;99.90
51175;DHT22;37240;50.104;20.010;2024-02-23T17:34:47;12.40;99.90
51175;DHT22;37240;50.104;20.010;2024-02-23T17:39:48;12.30;99.90
51175;DHT22;37240;50.104;20.010;2024-02-23T17:44:48;12.40;99.90
51175;DHT22;37240;50.104;20.010;2024-02-23T17:49:49;12.30;99.90
51175;DHT22;37240;50.104;20.010;2024-02-23T17:54:49;12.30;99.90
51175;DHT22;37240;50.104;20.010;2024-02-23T17:59:50;12.30;99.90
51175;DHT22;37240;50.104;20.010;2024-02-23T18:04:51;12.30;99.90
51175;DHT22;37240;50.104;20.010;2024-02-23T18:09:51;12.30;99.90
51175;DHT22;37240;50.104;20.010;2024-02-23T18:14:52;12.30;99.90
51175;DHT22;37240;50.104;20.010;2024-02-23T18:19:52;12.30;99.90
51175;DHT22;37240;50.104;20.010;2024-02-23T18:24:53;12.20;99.90
51175;DHT22;37240;50.104;20.010;2024-02-23T18:29:53;12.10;99.90
51175;DHT22;37240;50.104;20.010;2024-02-23T18:34:54;12.10;99.90
51175;DHT22;37240;50.104;20.010;2024-02-23T18:39:54;12.10;99.90
51175;DHT22;37240;50.104;20.010;2024-02-23T18:44:55;12.00;99.90
51175;DHT22;37240;50.104;20.010;2024-02-23T18:49:55;12.10;99.90
51175;DHT22;37240;50.104;20.010;2024-02-23T18:54:56;12.10;99.90
51175;DHT22;37240;50.104;20.010;2024-02-23T18:59:56;12.10;99.90
51175;DHT22;37240;50.104;20.010;2024-02-23T19:04:57;12.00;99.90
51175;DHT22;37240;50.104;20.010;2024-02-23T19:09:57;12.20;99.90
51175;DHT22;37240;50.104;20.010;2024-02-23T19:14:58;12.00;99.90
51175;DHT22;37240;50.104;20.010;2024-02-23T19:19:58;12.00;99.90
51175;DHT22;37240;50.104;20.010;2024-02-23T19:24:59;12.00;99.90
51175;DHT22;37240;50.104;20.010;2024-02-23T19:29:59;12.00;99.90
51175;DHT22;37240;50.104;20.010;2024-02-23T19:35:00;12.00;99.90
51175;DHT22;37240;50.104;20.010;2024-02-23T19:40:01;11.90;99.90
51175;DHT22;37240;50.104;20.010;2024-02-23T19:45:02;11.90;99.90
51175;DHT22;37240;50.104;20.010;2024-02-23T19:50:02;11.80;99.90
51175;DHT22;37240;50.104;20.010;2024-02-23T19:55:04;11.70;99.90
51175;DHT22;37240;50.104;20.010;2024-02-23T20:00:05;11.80;99.90
51175;DHT22;37240;50.104;20.010;2024-02-23T20:05:06;11.70;99.90
51175;DHT22;37240;50.104;20.010;2024-02-23T20:10:07;11.70;99.90
51175;DHT22;37240;50.104;20.010;2024-02-23T20:15:08;11.70;99.90
51175;DHT22;37240;50.104;20.010;2024-02-23T20:20:09;11.80;99.90
51175;DHT22;37240;50.104;20.010;2024-02-23T20:25:10;11.80;99.90
51175;DHT22;37240;50.104;20.010;2024-02-23T20:30:11;11.80;99.90
51175;DHT22;37240;50.104;20.010;2024-02-23T20:35:12;11.70;99.90
51175;DHT22;37240;50.104;20.010;2024-02-23T20:40:12;11.50;99.90
51175;DHT22;37240;50.104;20.010;2024-02-23T20:45:13;11.50;99.90
51175;DHT22;37240;50.104;20.010;2024-02-23T20:50:13;11.50;99.90
51175;DHT22;37240;50.104;20.010;2024-02-23T20:55:14;11.40;99.90
51175;DHT22;37240;50.104;20.010;2024-02-23T21:00:15;11.50;99.90
51175;DHT22;37240;50.104;20.010;2024-02-23T21:05:15;11.60;99.90
51175;DHT22;37240;50.104;20.010;2024-02-23T21:10:16;11.60;99.90
51175;DHT22;37240;50.104;20.010;2024-02-23T21:15:16;11.60;99.90
51175;DHT22;37240;50.104;20.010;2024-02-23T21:20:17;11.50;99.90
51175;DHT22;37240;50.104;20.010;2024-02-23T21:25:17;11.50;99.90
51175;DHT22;37240;50.104;20.010;2024-02-23T21:30:18;11.60;99.90
51175;DHT22;37240;50.104;20.010;2024-02-23T21:35:18;11.60;99.90
51175;DHT22;37240;50.104;20.010;2024-02-23T21:40:19;11.50;99.90
51175;DHT22;37240;50.104;20.010;2024-02-23T21:45:19;11.40;99.90
51175;DHT22;37240;50.104;20.010;2024-02-23T21:50:20;11.40;99.90
51175;DHT22;37240;50.104;20.010;2024-02-23T21:55:21;11.30;99.90
51175;DHT22;37240;50.104;20.010;2024-02-23T22:00:21;11.30;99.90
51175;DHT22;37240;50.104;20.010;2024-02-23T22:05:22;11.30;99.90
51175;DHT22;37240;50.104;20.010;2024-02-23T22:10:22;11.40;99.90
51175;DHT22;37240;50.104;20.010;2024-02-23T22:15:23;11.50;99.90
51175;DHT22;37240;50.104;20.010;2024-02-23T22:20:23;11.40;99.90
51175;DHT22;37240;50.104;20.010;2024-02-23T22:25:24;11.40;99.90
51175;DHT22;37240;50.104;20.010;2024-02-23T22:30:24;11.40;99.90
51175;DHT22;37240;50.104;20.010;2024-02-23T22:35:25;11.50;99.90
51175;DHT22;37240;50.104;20.010;2024-02-23T22:40:25;11.60;99.90
51175;DHT22;37240;50.104;20.010;2024-02-23T22:45:26;11.60;99.90
51175;DHT22;37240;50.104;20.010;2024-02-23T22:50:26;11.70;99.90
51175;DHT22;37240;50.104;20.010;2024-02-23T22:55:27;11.60;99.90
51175;DHT22;37240;50.104;20.010;2024-02-23T23:00:27;11.60;99.90
51175;DHT22;37240;50.104;20.010;2024-02-23T23:05:28;11.60;99.90
51175;DHT22;37240;50.104;20.010;2024-02-23T23:10:28;11.50;99.90
51175;DHT22;37240;50.104;20.010;2024-02-23T23:15:29;11.50;99.90
51175;DHT22;37240;50.104;20.010;2024-02-23T23:20:29;11.60;99.90
51175;DHT22;37240;50.104;20.010;2024-02-23T23:25:30;11.70;99.90
51175;DHT22;37240;50.104;20.010;2024-02-23T23:30:31;11.70;99.90
51175;DHT22;37240;50.104;20.010;2024-02-23T23:35:31;11.60;99.90
51175;DHT22;37240;50.104;20.010;2024-02-23T23:40:32;11.50;99.90
51175;DHT22;37240;50.104;20.010;2024-02-23T23:45:32;11.50;99.90
51175;DHT22;37240;50.104;20.010;2024-02-23T23:50:33;11.50;99.90
51175;DHT22;37240;50.104;20.010;2024-02-23T23:55:33;11.50;99.90
